sensor_id;sensor_type;location;lat;lon;timestamp;P1;durP1;ratioP1;P2;durP2;ratioP2
31095;SDS011;17749;51.962;8.560;2024-03-23T06:02:48;8.70;;;2.60;;
31095;SDS011;17749;51.962;8.560;2024-03-23T06:05:14;6.28;;;2.85;;
31095;SDS011;17749;51.962;8.560;2024-03-23T06:07:40;19.02;;;4.28;;
31095;SDS011;17749;51.962;8.560;2024-03-23T06:10:06;8.57;;;3.25;;
31095;SDS011;17749;51.962;8.560;2024-03-23T06:12:33;9.20;;;2.85;;
31095;SDS011;17749;51.962;8.560;2024-03-23T06:14:59;6.85;;;2.65;;
31095;SDS011;17749;51.962;8.560;2024-03-23T06:17:25;9.93;;;2.70;;
31095;SDS011;17749;51.962;8.560;2024-03-23T06:19:51;8.20;;;3.00;;
31095;SDS011;17749;51.962;8.560;2024-03-23T06:22:17;9.10;;;2.42;;
31095;SDS011;17749;51.962;8.560;2024-03-23T06:24:44;7.13;;;2.45;;
31095;SDS011;17749;51.962;8.560;2024-03-23T06:27:10;13.57;;;2.97;;
31095;SDS011;17749;51.962;8.560;2024-03-23T06:29:36;10.40;;;3.10;;
31095;SDS011;17749;51.962;8.560;2024-03-23T06:32:02;12.85;;;3.00;;
31095;SDS011;17749;51.962;8.560;2024-03-23T06:34:29;13.25;;;3.67;;
31095;SDS011;17749;51.962;8.560;2024-03-23T06:36:56;14.52;;;4.00;;
31095;SDS011;17749;51.962;8.560;2024-03-23T06:39:21;16.58;;;3.33;;
31095;SDS011;17749;51.962;8.560;2024-03-23T06:41:52;13.88;;;3.90;;
31095;SDS011;17749;51.962;8.560;2024-03-23T06:44:19;11.68;;;3.38;;
31095;SDS011;17749;51.962;8.560;2024-03-23T06:46:46;13.23;;;4.63;;
31095;SDS011;17749;51.962;8.560;2024-03-23T06:49:14;12.80;;;3.50;;
31095;SDS011;17749;51.962;8.560;2024-03-23T06:51:41;9.30;;;4.43;;
31095;SDS011;17749;51.962;8.560;2024-03-23T06:54:07;15.93;;;4.35;;
31095;SDS011;17749;51.962;8.560;2024-03-23T06:56:34;15.73;;;3.97;;
31095;SDS011;17749;51.962;8.560;2024-03-23T06:59:00;14.38;;;4.63;;
31095;SDS011;17749;51.962;8.560;2024-03-23T07:01:26;15.65;;;6.90;;
31095;SDS011;17749;51.962;8.560;2024-03-23T07:03:52;17.58;;;4.93;;
31095;SDS011;17749;51.962;8.560;2024-03-23T07:06:18;21.92;;;6.68;;
31095;SDS011;17749;51.962;8.560;2024-03-23T07:08:44;14.50;;;6.55;;
31095;SDS011;17749;51.962;8.560;2024-03-23T07:11:23;21.80;;;6.75;;
31095;SDS011;17749;51.962;8.560;2024-03-23T07:18:08;24.45;;;7.90;;
31095;SDS011;17749;51.962;8.560;2024-03-23T07:20:38;25.33;;;10.07;;
31095;SDS011;17749;51.962;8.560;2024-03-23T07:27:04;28.27;;;8.45;;
31095;SDS011;17749;51.962;8.560;2024-03-23T07:33:36;23.45;;;9.60;;
31095;SDS011;17749;51.962;8.560;2024-03-23T07:40:32;28.38;;;10.60;;
31095;SDS011;17749;51.962;8.560;2024-03-23T07:43:01;27.80;;;10.73;;
31095;SDS011;17749;51.962;8.560;2024-03-23T07:45:28;34.03;;;11.13;;
31095;SDS011;17749;51.962;8.560;2024-03-23T07:47:54;32.25;;;11.35;;
31095;SDS011;17749;51.962;8.560;2024-03-23T07:50:20;28.38;;;10.65;;
31095;SDS011;17749;51.962;8.560;2024-03-23T07:52:46;29.75;;;12.05;;
31095;SDS011;17749;51.962;8.560;2024-03-23T07:55:12;31.73;;;12.65;;
31095;SDS011;17749;51.962;8.560;2024-03-23T07:57:38;30.08;;;10.80;;
31095;SDS011;17749;51.962;8.560;2024-03-23T08:00:05;30.95;;;12.25;;
31095;SDS011;17749;51.962;8.560;2024-03-23T08:02:32;28.80;;;11.77;;
31095;SDS011;17749;51.962;8.560;2024-03-23T08:04:57;37.80;;;11.70;;
31095;SDS011;17749;51.962;8.560;2024-03-23T08:07:24;43.28;;;14.40;;
31095;SDS011;17749;51.962;8.560;2024-03-23T08:09:51;24.63;;;11.98;;
31095;SDS011;17749;51.962;8.560;2024-03-23T08:12:17;30.17;;;12.68;;
31095;SDS011;17749;51.962;8.560;2024-03-23T08:14:45;30.70;;;12.70;;
31095;SDS011;17749;51.962;8.560;2024-03-23T08:17:11;32.03;;;11.63;;
31095;SDS011;17749;51.962;8.560;2024-03-23T08:19:37;29.65;;;11.15;;
31095;SDS011;17749;51.962;8.560;2024-03-23T08:22:03;31.27;;;10.57;;
31095;SDS011;17749;51.962;8.560;2024-03-23T08:24:29;28.17;;;11.02;;
31095;SDS011;17749;51.962;8.560;2024-03-23T08:26:56;31.33;;;12.60;;
31095;SDS011;17749;51.962;8.560;2024-03-23T08:29:22;33.60;;;11.32;;
31095;SDS011;17749;51.962;8.560;2024-03-23T08:31:48;25.20;;;8.95;;
31095;SDS011;17749;51.962;8.560;2024-03-23T08:34:14;27.75;;;9.23;;
31095;SDS011;17749;51.962;8.560;2024-03-23T08:36:41;24.55;;;9.98;;
31095;SDS011;17749;51.962;8.560;2024-03-23T08:39:07;23.48;;;8.32;;
31095;SDS011;17749;51.962;8.560;2024-03-23T08:41:33;24.83;;;7.50;;
31095;SDS011;17749;51.962;8.560;2024-03-23T08:43:59;19.50;;;8.70;;
31095;SDS011;17749;51.962;8.560;2024-03-23T08:46:26;20.92;;;8.02;;
31095;SDS011;17749;51.962;8.560;2024-03-23T08:48:52;19.83;;;7.32;;
31095;SDS011;17749;51.962;8.560;2024-03-23T08:51:19;16.05;;;6.60;;
31095;SDS011;17749;51.962;8.560;2024-03-23T08:53:45;18.30;;;7.13;;
31095;SDS011;17749;51.962;8.560;2024-03-23T08:56:11;15.02;;;6.00;;
31095;SDS011;17749;51.962;8.560;2024-03-23T08:58:38;17.42;;;7.70;;
31095;SDS011;17749;51.962;8.560;2024-03-23T09:03:40;17.80;;;6.32;;
31095;SDS011;17749;51.962;8.560;2024-03-23T09:06:11;11.48;;;5.72;;
31095;SDS011;17749;51.962;8.560;2024-03-23T09:08:38;21.77;;;5.63;;
31095;SDS011;17749;51.962;8.560;2024-03-23T09:11:06;22.52;;;6.38;;
31095;SDS011;17749;51.962;8.560;2024-03-23T09:13:34;13.82;;;6.53;;
31095;SDS011;17749;51.962;8.560;2024-03-23T09:16:01;11.23;;;4.95;;
31095;SDS011;17749;51.962;8.560;2024-03-23T09:18:30;18.23;;;4.63;;
31095;SDS011;17749;51.962;8.560;2024-03-23T09:20:58;16.40;;;6.22;;
31095;SDS011;17749;51.962;8.560;2024-03-23T09:23:24;18.80;;;5.53;;
31095;SDS011;17749;51.962;8.560;2024-03-23T09:25:50;15.85;;;5.25;;
31095;SDS011;17749;51.962;8.560;2024-03-23T09:28:16;11.48;;;6.10;;
31095;SDS011;17749;51.962;8.560;2024-03-23T09:30:43;10.80;;;4.38;;
31095;SDS011;17749;51.962;8.560;2024-03-23T09:33:09;10.93;;;5.82;;
31095;SDS011;17749;51.962;8.560;2024-03-23T09:35:37;13.30;;;4.25;;
31095;SDS011;17749;51.962;8.560;2024-03-23T09:38:07;12.05;;;4.38;;
31095;SDS011;17749;51.962;8.560;2024-03-23T09:40:34;13.57;;;5.82;;
31095;SDS011;17749;51.962;8.560;2024-03-23T09:43:09;16.00;;;4.80;;
31095;SDS011;17749;51.962;8.560;2024-03-23T09:45:36;20.88;;;5.25;;
31095;SDS011;17749;51.962;8.560;2024-03-23T09:48:05;10.48;;;4.00;;
31095;SDS011;17749;51.962;8.560;2024-03-23T09:50:33;16.20;;;4.05;;
31095;SDS011;17749;51.962;8.560;2024-03-23T09:53:00;9.90;;;4.18;;
31095;SDS011;17749;51.962;8.560;2024-03-23T09:55:26;13.55;;;4.03;;
31095;SDS011;17749;51.962;8.560;2024-03-23T09:57:53;9.52;;;3.03;;
31095;SDS011;17749;51.962;8.560;2024-03-23T10:00:19;8.02;;;3.58;;
31095;SDS011;17749;51.962;8.560;2024-03-23T10:02:45;12.20;;;2.72;;
31095;SDS011;17749;51.962;8.560;2024-03-23T10:05:19;7.60;;;2.70;;
31095;SDS011;17749;51.962;8.560;2024-03-23T10:07:52;9.90;;;2.85;;
31095;SDS011;17749;51.962;8.560;2024-03-23T10:10:18;10.75;;;3.60;;
31095;SDS011;17749;51.962;8.560;2024-03-23T10:12:48;7.82;;;3.08;;
31095;SDS011;17749;51.962;8.560;2024-03-23T10:15:18;10.88;;;3.03;;
31095;SDS011;17749;51.962;8.560;2024-03-23T10:17:49;8.50;;;3.80;;
31095;SDS011;17749;51.962;8.560;2024-03-23T10:20:19;5.22;;;2.72;;
31095;SDS011;17749;51.962;8.560;2024-03-23T10:22:49;14.93;;;4.38;;
31095;SDS011;17749;51.962;8.560;2024-03-23T10:25:18;8.20;;;2.90;;
31095;SDS011;17749;51.962;8.560;2024-03-23T10:27:58;11.25;;;3.75;;
31095;SDS011;17749;51.962;8.560;2024-03-23T10:30:25;8.43;;;3.13;;
31095;SDS011;17749;51.962;8.560;2024-03-23T10:33:09;9.93;;;3.33;;
31095;SDS011;17749;51.962;8.560;2024-03-23T10:35:39;11.77;;;3.20;;
31095;SDS011;17749;51.962;8.560;2024-03-23T10:38:06;9.70;;;3.72;;
31095;SDS011;17749;51.962;8.560;2024-03-23T10:40:36;8.43;;;3.88;;
31095;SDS011;17749;51.962;8.560;2024-03-23T10:43:04;12.88;;;4.60;;
31095;SDS011;17749;51.962;8.560;2024-03-23T10:45:31;12.30;;;3.50;;
31095;SDS011;17749;51.962;8.560;2024-03-23T10:47:57;13.50;;;4.95;;
31095;SDS011;17749;51.962;8.560;2024-03-23T10:50:23;13.63;;;4.00;;
31095;SDS011;17749;51.962;8.560;2024-03-23T10:52:49;9.73;;;2.38;;
31095;SDS011;17749;51.962;8.560;2024-03-23T10:55:19;9.80;;;2.63;;
31095;SDS011;17749;51.962;8.560;2024-03-23T10:57:54;6.97;;;2.15;;
31095;SDS011;17749;51.962;8.560;2024-03-23T11:00:21;7.53;;;3.17;;
31095;SDS011;17749;51.962;8.560;2024-03-23T11:02:49;5.82;;;2.33;;
31095;SDS011;17749;51.962;8.560;2024-03-23T11:07:50;7.60;;;2.20;;
31095;SDS011;17749;51.962;8.560;2024-03-23T11:10:27;6.57;;;2.58;;
31095;SDS011;17749;51.962;8.560;2024-03-23T11:12:56;9.75;;;3.00;;
31095;SDS011;17749;51.962;8.560;2024-03-23T11:15:23;6.93;;;2.30;;
31095;SDS011;17749;51.962;8.560;2024-03-23T11:18:05;11.52;;;3.10;;
31095;SDS011;17749;51.962;8.560;2024-03-23T11:20:36;10.35;;;3.88;;
31095;SDS011;17749;51.962;8.560;2024-03-23T11:25:30;10.20;;;2.92;;
31095;SDS011;17749;51.962;8.560;2024-03-23T11:27:57;9.68;;;3.67;;
31095;SDS011;17749;51.962;8.560;2024-03-23T11:30:25;9.70;;;3.25;;
31095;SDS011;17749;51.962;8.560;2024-03-23T11:32:53;7.95;;;3.33;;
31095;SDS011;17749;51.962;8.560;2024-03-23T11:35:31;9.27;;;3.50;;
31095;SDS011;17749;51.962;8.560;2024-03-23T11:38:15;10.82;;;3.53;;
31095;SDS011;17749;51.962;8.560;2024-03-23T11:40:45;6.45;;;2.95;;
31095;SDS011;17749;51.962;8.560;2024-03-23T11:43:13;7.18;;;3.15;;
31095;SDS011;17749;51.962;8.560;2024-03-23T11:45:47;11.85;;;3.42;;
31095;SDS011;17749;51.962;8.560;2024-03-23T11:48:14;6.88;;;3.58;;
31095;SDS011;17749;51.962;8.560;2024-03-23T11:50:44;11.10;;;3.40;;
31095;SDS011;17749;51.962;8.560;2024-03-23T11:53:17;8.98;;;3.35;;
31095;SDS011;17749;51.962;8.560;2024-03-23T11:55:52;5.88;;;2.30;;
31095;SDS011;17749;51.962;8.560;2024-03-23T11:58:25;10.15;;;3.80;;
31095;SDS011;17749;51.962;8.560;2024-03-23T12:00:56;7.07;;;3.13;;
31095;SDS011;17749;51.962;8.560;2024-03-23T12:03:30;6.55;;;2.35;;
31095;SDS011;17749;51.962;8.560;2024-03-23T12:05:58;7.40;;;2.95;;
31095;SDS011;17749;51.962;8.560;2024-03-23T12:08:36;12.52;;;3.90;;
31095;SDS011;17749;51.962;8.560;2024-03-23T12:11:08;8.68;;;3.80;;
31095;SDS011;17749;51.962;8.560;2024-03-23T12:13:37;7.32;;;2.67;;
31095;SDS011;17749;51.962;8.560;2024-03-23T12:16:15;7.13;;;2.40;;
31095;SDS011;17749;51.962;8.560;2024-03-23T12:18:43;6.95;;;2.58;;
31095;SDS011;17749;51.962;8.560;2024-03-23T12:21:13;5.28;;;3.05;;
31095;SDS011;17749;51.962;8.560;2024-03-23T12:23:39;5.78;;;2.35;;
31095;SDS011;17749;51.962;8.560;2024-03-23T12:26:06;6.13;;;2.92;;
31095;SDS011;17749;51.962;8.560;2024-03-23T12:28:32;8.32;;;3.03;;
31095;SDS011;17749;51.962;8.560;2024-03-23T12:30:59;9.13;;;2.60;;
31095;SDS011;17749;51.962;8.560;2024-03-23T12:33:25;9.23;;;3.13;;
31095;SDS011;17749;51.962;8.560;2024-03-23T12:35:51;8.35;;;3.03;;
31095;SDS011;17749;51.962;8.560;2024-03-23T12:38:17;6.93;;;1.42;;
31095;SDS011;17749;51.962;8.560;2024-03-23T12:40:47;6.30;;;1.33;;
31095;SDS011;17749;51.962;8.560;2024-03-23T12:43:17;5.13;;;1.77;;
31095;SDS011;17749;51.962;8.560;2024-03-23T12:45:46;4.50;;;3.03;;
31095;SDS011;17749;51.962;8.560;2024-03-23T12:48:13;2.78;;;1.73;;
31095;SDS011;17749;51.962;8.560;2024-03-23T12:50:39;6.97;;;3.13;;
31095;SDS011;17749;51.962;8.560;2024-03-23T12:53:05;6.43;;;2.60;;
31095;SDS011;17749;51.962;8.560;2024-03-23T12:55:31;7.53;;;3.25;;
31095;SDS011;17749;51.962;8.560;2024-03-23T12:57:57;7.20;;;3.08;;
31095;SDS011;17749;51.962;8.560;2024-03-23T13:00:23;6.22;;;3.22;;
31095;SDS011;17749;51.962;8.560;2024-03-23T13:02:49;7.47;;;2.50;;
31095;SDS011;17749;51.962;8.560;2024-03-23T13:05:15;7.60;;;3.15;;
31095;SDS011;17749;51.962;8.560;2024-03-23T13:07:41;5.38;;;2.22;;
31095;SDS011;17749;51.962;8.560;2024-03-23T13:10:07;9.45;;;3.95;;
31095;SDS011;17749;51.962;8.560;2024-03-23T13:12:34;6.82;;;2.40;;
31095;SDS011;17749;51.962;8.560;2024-03-23T13:15:00;1.98;;;1.40;;
31095;SDS011;17749;51.962;8.560;2024-03-23T13:17:27;3.25;;;1.80;;
31095;SDS011;17749;51.962;8.560;2024-03-23T13:19:54;7.43;;;2.05;;
31095;SDS011;17749;51.962;8.560;2024-03-23T13:22:21;5.28;;;2.25;;
31095;SDS011;17749;51.962;8.560;2024-03-23T13:24:47;3.08;;;1.63;;
31095;SDS011;17749;51.962;8.560;2024-03-23T13:27:14;7.05;;;2.80;;
31095;SDS011;17749;51.962;8.560;2024-03-23T13:29:40;5.45;;;1.58;;
31095;SDS011;17749;51.962;8.560;2024-03-23T13:32:07;4.93;;;2.42;;
31095;SDS011;17749;51.962;8.560;2024-03-23T13:34:33;8.00;;;2.30;;
31095;SDS011;17749;51.962;8.560;2024-03-23T13:37:01;9.88;;;1.77;;
31095;SDS011;17749;51.962;8.560;2024-03-23T13:39:27;5.97;;;2.75;;
31095;SDS011;17749;51.962;8.560;2024-03-23T13:41:53;3.78;;;2.13;;
31095;SDS011;17749;51.962;8.560;2024-03-23T13:44:23;2.30;;;1.30;;
31095;SDS011;17749;51.962;8.560;2024-03-23T13:46:49;1.00;;;0.57;;
31095;SDS011;17749;51.962;8.560;2024-03-23T13:49:26;3.67;;;0.80;;
31095;SDS011;17749;51.962;8.560;2024-03-23T13:51:56;2.75;;;0.90;;
31095;SDS011;17749;51.962;8.560;2024-03-23T13:54:24;6.00;;;1.23;;
31095;SDS011;17749;51.962;8.560;2024-03-23T13:56:51;2.78;;;1.17;;
31095;SDS011;17749;51.962;8.560;2024-03-23T13:59:18;5.95;;;1.27;;
31095;SDS011;17749;51.962;8.560;2024-03-23T14:01:45;4.75;;;1.90;;
31095;SDS011;17749;51.962;8.560;2024-03-23T14:04:13;3.10;;;1.40;;
31095;SDS011;17749;51.962;8.560;2024-03-23T14:06:45;5.90;;;2.38;;
31095;SDS011;17749;51.962;8.560;2024-03-23T14:09:12;9.38;;;2.75;;
31095;SDS011;17749;51.962;8.560;2024-03-23T14:11:40;4.03;;;1.85;;
31095;SDS011;17749;51.962;8.560;2024-03-23T14:14:09;7.20;;;2.95;;
31095;SDS011;17749;51.962;8.560;2024-03-23T14:16:35;9.20;;;2.95;;
31095;SDS011;17749;51.962;8.560;2024-03-23T14:19:01;3.47;;;1.15;;
31095;SDS011;17749;51.962;8.560;2024-03-23T14:21:27;4.72;;;2.03;;
31095;SDS011;17749;51.962;8.560;2024-03-23T14:23:53;4.10;;;1.30;;
31095;SDS011;17749;51.962;8.560;2024-03-23T14:26:20;8.90;;;2.45;;
31095;SDS011;17749;51.962;8.560;2024-03-23T14:28:47;9.23;;;4.38;;
31095;SDS011;17749;51.962;8.560;2024-03-23T14:31:15;6.68;;;2.28;;
31095;SDS011;17749;51.962;8.560;2024-03-23T14:33:41;7.57;;;2.90;;
31095;SDS011;17749;51.962;8.560;2024-03-23T14:36:15;11.10;;;2.33;;
31095;SDS011;17749;51.962;8.560;2024-03-23T14:38:49;4.75;;;1.45;;
31095;SDS011;17749;51.962;8.560;2024-03-23T14:41:15;2.33;;;1.38;;
31095;SDS011;17749;51.962;8.560;2024-03-23T14:43:42;6.38;;;3.13;;
31095;SDS011;17749;51.962;8.560;2024-03-23T14:46:14;18.48;;;7.88;;
31095;SDS011;17749;51.962;8.560;2024-03-23T14:48:44;4.53;;;1.67;;
31095;SDS011;17749;51.962;8.560;2024-03-23T14:51:10;3.45;;;1.92;;
31095;SDS011;17749;51.962;8.560;2024-03-23T14:53:37;9.35;;;4.53;;
31095;SDS011;17749;51.962;8.560;2024-03-23T14:56:06;6.57;;;2.30;;
31095;SDS011;17749;51.962;8.560;2024-03-23T14:58:33;4.45;;;1.80;;
31095;SDS011;17749;51.962;8.560;2024-03-23T15:01:03;7.90;;;3.53;;
31095;SDS011;17749;51.962;8.560;2024-03-23T15:03:30;7.45;;;2.65;;
31095;SDS011;17749;51.962;8.560;2024-03-23T15:05:57;10.18;;;2.47;;
31095;SDS011;17749;51.962;8.560;2024-03-23T15:08:25;3.78;;;2.40;;
31095;SDS011;17749;51.962;8.560;2024-03-23T15:10:53;3.58;;;1.85;;
31095;SDS011;17749;51.962;8.560;2024-03-23T15:13:20;6.15;;;2.33;;
31095;SDS011;17749;51.962;8.560;2024-03-23T15:15:48;7.32;;;3.17;;
31095;SDS011;17749;51.962;8.560;2024-03-23T15:18:15;3.70;;;1.48;;
31095;SDS011;17749;51.962;8.560;2024-03-23T15:20:41;2.55;;;1.52;;
31095;SDS011;17749;51.962;8.560;2024-03-23T15:23:17;3.95;;;1.95;;
31095;SDS011;17749;51.962;8.560;2024-03-23T15:25:43;4.35;;;1.77;;
31095;SDS011;17749;51.962;8.560;2024-03-23T15:28:09;8.60;;;1.95;;
31095;SDS011;17749;51.962;8.560;2024-03-23T15:30:35;4.38;;;1.52;;
31095;SDS011;17749;51.962;8.560;2024-03-23T15:33:01;3.17;;;2.00;;
31095;SDS011;17749;51.962;8.560;2024-03-23T15:35:27;8.63;;;3.00;;
31095;SDS011;17749;51.962;8.560;2024-03-23T15:37:54;6.95;;;2.38;;
31095;SDS011;17749;51.962;8.560;2024-03-23T15:40:19;4.97;;;2.88;;
31095;SDS011;17749;51.962;8.560;2024-03-23T15:42:46;3.78;;;1.90;;
31095;SDS011;17749;51.962;8.560;2024-03-23T15:45:12;5.22;;;1.80;;
31095;SDS011;17749;51.962;8.560;2024-03-23T15:47:38;4.60;;;1.92;;
31095;SDS011;17749;51.962;8.560;2024-03-23T15:50:04;7.97;;;2.08;;
31095;SDS011;17749;51.962;8.560;2024-03-23T15:52:37;6.65;;;1.90;;
31095;SDS011;17749;51.962;8.560;2024-03-23T15:55:03;5.23;;;2.27;;
31095;SDS011;17749;51.962;8.560;2024-03-23T15:57:34;3.45;;;1.67;;
31095;SDS011;17749;51.962;8.560;2024-03-23T16:00:01;2.58;;;1.77;;
31095;SDS011;17749;51.962;8.560;2024-03-23T16:02:37;7.70;;;2.45;;
31095;SDS011;17749;51.962;8.560;2024-03-23T16:05:03;7.15;;;2.67;;
31095;SDS011;17749;51.962;8.560;2024-03-23T16:07:29;4.95;;;2.13;;
31095;SDS011;17749;51.962;8.560;2024-03-23T16:09:56;6.05;;;2.38;;
31095;SDS011;17749;51.962;8.560;2024-03-23T16:12:22;5.97;;;2.30;;
31095;SDS011;17749;51.962;8.560;2024-03-23T16:14:48;7.53;;;3.17;;
31095;SDS011;17749;51.962;8.560;2024-03-23T16:17:14;9.93;;;4.55;;
31095;SDS011;17749;51.962;8.560;2024-03-23T16:19:40;11.00;;;3.38;;
31095;SDS011;17749;51.962;8.560;2024-03-23T16:22:06;6.10;;;3.28;;
31095;SDS011;17749;51.962;8.560;2024-03-23T16:24:32;5.25;;;2.72;;
31095;SDS011;17749;51.962;8.560;2024-03-23T16:26:58;7.57;;;2.75;;
31095;SDS011;17749;51.962;8.560;2024-03-23T16:29:25;11.57;;;2.72;;
31095;SDS011;17749;51.962;8.560;2024-03-23T16:31:50;8.73;;;3.20;;
31095;SDS011;17749;51.962;8.560;2024-03-23T16:34:17;6.80;;;2.72;;
31095;SDS011;17749;51.962;8.560;2024-03-23T16:36:42;7.13;;;2.80;;
31095;SDS011;17749;51.962;8.560;2024-03-23T16:39:08;6.38;;;2.72;;
31095;SDS011;17749;51.962;8.560;2024-03-23T16:41:35;5.50;;;2.10;;
31095;SDS011;17749;51.962;8.560;2024-03-23T16:44:01;6.13;;;2.67;;
31095;SDS011;17749;51.962;8.560;2024-03-23T16:46:26;4.15;;;2.17;;
31095;SDS011;17749;51.962;8.560;2024-03-23T16:48:53;3.75;;;1.73;;
31095;SDS011;17749;51.962;8.560;2024-03-23T16:51:19;5.90;;;1.63;;
31095;SDS011;17749;51.962;8.560;2024-03-23T16:53:45;5.95;;;2.30;;
31095;SDS011;17749;51.962;8.560;2024-03-23T16:56:12;4.68;;;1.85;;
31095;SDS011;17749;51.962;8.560;2024-03-23T16:58:39;2.70;;;1.38;;
31095;SDS011;17749;51.962;8.560;2024-03-23T17:01:09;3.60;;;1.48;;
31095;SDS011;17749;51.962;8.560;2024-03-23T17:03:46;10.75;;;3.65;;
31095;SDS011;17749;51.962;8.560;2024-03-23T17:06:14;5.63;;;1.83;;
31095;SDS011;17749;51.962;8.560;2024-03-23T17:08:44;8.55;;;1.85;;
31095;SDS011;17749;51.962;8.560;2024-03-23T17:11:13;2.65;;;1.25;;
31095;SDS011;17749;51.962;8.560;2024-03-23T17:13:39;2.25;;;1.15;;
31095;SDS011;17749;51.962;8.560;2024-03-23T17:16:05;4.30;;;1.38;;
31095;SDS011;17749;51.962;8.560;2024-03-23T17:18:33;3.78;;;1.63;;
31095;SDS011;17749;51.962;8.560;2024-03-23T17:20:59;6.20;;;1.40;;
31095;SDS011;17749;51.962;8.560;2024-03-23T17:23:26;3.80;;;1.58;;
31095;SDS011;17749;51.962;8.560;2024-03-23T17:25:53;5.72;;;1.50;;
31095;SDS011;17749;51.962;8.560;2024-03-23T17:28:19;5.35;;;1.73;;
31095;SDS011;17749;51.962;8.560;2024-03-23T17:30:45;3.80;;;1.50;;
31095;SDS011;17749;51.962;8.560;2024-03-23T17:33:16;4.57;;;1.23;;
31095;SDS011;17749;51.962;8.560;2024-03-23T17:35:43;4.53;;;1.33;;
31095;SDS011;17749;51.962;8.560;2024-03-23T17:38:11;3.03;;;1.48;;
31095;SDS011;17749;51.962;8.560;2024-03-23T17:40:37;4.50;;;1.50;;
31095;SDS011;17749;51.962;8.560;2024-03-23T17:43:04;5.10;;;1.73;;
31095;SDS011;17749;51.962;8.560;2024-03-23T17:45:30;6.00;;;1.92;;
31095;SDS011;17749;51.962;8.560;2024-03-23T17:47:56;6.53;;;1.88;;
31095;SDS011;17749;51.962;8.560;2024-03-23T17:50:22;6.57;;;1.40;;
31095;SDS011;17749;51.962;8.560;2024-03-23T17:52:49;2.90;;;1.75;;
31095;SDS011;17749;51.962;8.560;2024-03-23T17:55:15;5.65;;;2.25;;
31095;SDS011;17749;51.962;8.560;2024-03-23T17:57:42;2.78;;;1.50;;
31095;SDS011;17749;51.962;8.560;2024-03-23T18:00:08;9.13;;;1.98;;
31095;SDS011;17749;51.962;8.560;2024-03-23T18:02:37;5.80;;;2.97;;
31095;SDS011;17749;51.962;8.560;2024-03-23T18:05:04;2.28;;;1.20;;
31095;SDS011;17749;51.962;8.560;2024-03-23T18:07:30;5.13;;;1.60;;
31095;SDS011;17749;51.962;8.560;2024-03-23T18:09:57;3.33;;;1.63;;
31095;SDS011;17749;51.962;8.560;2024-03-23T18:12:23;5.72;;;1.75;;
31095;SDS011;17749;51.962;8.560;2024-03-23T18:14:51;4.13;;;1.50;;
31095;SDS011;17749;51.962;8.560;2024-03-23T18:17:20;9.30;;;2.03;;
31095;SDS011;17749;51.962;8.560;2024-03-23T18:19:46;5.72;;;2.17;;
31095;SDS011;17749;51.962;8.560;2024-03-23T18:22:12;4.60;;;1.90;;
31095;SDS011;17749;51.962;8.560;2024-03-23T18:24:41;4.10;;;1.58;;
31095;SDS011;17749;51.962;8.560;2024-03-23T18:27:08;2.65;;;1.45;;
31095;SDS011;17749;51.962;8.560;2024-03-23T18:29:43;3.38;;;1.95;;
31095;SDS011;17749;51.962;8.560;2024-03-23T18:32:09;3.90;;;1.25;;
31095;SDS011;17749;51.962;8.560;2024-03-23T18:34:36;5.15;;;1.25;;
31095;SDS011;17749;51.962;8.560;2024-03-23T18:37:02;5.65;;;1.98;;
31095;SDS011;17749;51.962;8.560;2024-03-23T18:39:28;4.72;;;1.88;;
31095;SDS011;17749;51.962;8.560;2024-03-23T18:41:55;4.00;;;0.93;;
31095;SDS011;17749;51.962;8.560;2024-03-23T18:44:21;2.22;;;1.02;;
31095;SDS011;17749;51.962;8.560;2024-03-23T18:46:47;4.45;;;1.55;;
31095;SDS011;17749;51.962;8.560;2024-03-23T18:49:13;4.22;;;1.45;;
31095;SDS011;17749;51.962;8.560;2024-03-23T18:51:40;3.38;;;1.52;;
31095;SDS011;17749;51.962;8.560;2024-03-23T18:54:07;6.28;;;2.10;;
31095;SDS011;17749;51.962;8.560;2024-03-23T18:56:33;8.20;;;3.40;;
31095;SDS011;17749;51.962;8.560;2024-03-23T18:58:59;7.78;;;2.90;;
31095;SDS011;17749;51.962;8.560;2024-03-23T19:01:26;9.27;;;3.35;;
31095;SDS011;17749;51.962;8.560;2024-03-23T19:03:51;9.98;;;3.78;;
31095;SDS011;17749;51.962;8.560;2024-03-23T19:06:18;9.85;;;2.95;;
31095;SDS011;17749;51.962;8.560;2024-03-23T19:08:44;10.15;;;3.53;;
31095;SDS011;17749;51.962;8.560;2024-03-23T19:11:10;7.45;;;3.05;;
31095;SDS011;17749;51.962;8.560;2024-03-23T19:13:36;8.93;;;5.80;;
31095;SDS011;17749;51.962;8.560;2024-03-23T19:16:02;12.57;;;5.15;;
31095;SDS011;17749;51.962;8.560;2024-03-23T19:18:33;15.43;;;5.05;;
31095;SDS011;17749;51.962;8.560;2024-03-23T19:20:59;12.10;;;6.00;;
31095;SDS011;17749;51.962;8.560;2024-03-23T19:23:26;8.98;;;3.67;;
31095;SDS011;17749;51.962;8.560;2024-03-23T19:25:54;5.78;;;3.40;;
31095;SDS011;17749;51.962;8.560;2024-03-23T19:28:25;9.52;;;4.03;;
31095;SDS011;17749;51.962;8.560;2024-03-23T19:30:54;8.13;;;4.35;;
31095;SDS011;17749;51.962;8.560;2024-03-23T19:33:21;11.60;;;4.50;;
31095;SDS011;17749;51.962;8.560;2024-03-23T19:35:54;7.80;;;3.58;;
31095;SDS011;17749;51.962;8.560;2024-03-23T19:38:21;4.40;;;2.00;;
31095;SDS011;17749;51.962;8.560;2024-03-23T19:40:54;4.50;;;2.20;;
31095;SDS011;17749;51.962;8.560;2024-03-23T19:43:21;6.82;;;2.67;;
31095;SDS011;17749;51.962;8.560;2024-03-23T19:45:47;6.10;;;2.30;;
31095;SDS011;17749;51.962;8.560;2024-03-23T19:48:14;4.35;;;1.50;;
31095;SDS011;17749;51.962;8.560;2024-03-23T19:50:40;3.78;;;1.58;;
31095;SDS011;17749;51.962;8.560;2024-03-23T19:53:07;3.22;;;1.73;;
31095;SDS011;17749;51.962;8.560;2024-03-23T19:55:34;6.95;;;2.45;;
31095;SDS011;17749;51.962;8.560;2024-03-23T19:58:06;2.72;;;1.83;;
31095;SDS011;17749;51.962;8.560;2024-03-23T20:00:33;6.20;;;2.08;;
31095;SDS011;17749;51.962;8.560;2024-03-23T20:02:59;5.53;;;1.60;;
31095;SDS011;17749;51.962;8.560;2024-03-23T20:05:31;4.15;;;2.10;;
31095;SDS011;17749;51.962;8.560;2024-03-23T20:07:57;4.97;;;2.25;;
31095;SDS011;17749;51.962;8.560;2024-03-23T20:10:24;4.30;;;2.72;;
31095;SDS011;17749;51.962;8.560;2024-03-23T20:12:56;7.50;;;3.00;;
31095;SDS011;17749;51.962;8.560;2024-03-23T20:15:22;7.10;;;2.55;;
31095;SDS011;17749;51.962;8.560;2024-03-23T20:17:48;4.85;;;2.60;;
31095;SDS011;17749;51.962;8.560;2024-03-23T20:20:15;5.40;;;2.47;;
31095;SDS011;17749;51.962;8.560;2024-03-23T20:22:41;5.30;;;2.50;;
31095;SDS011;17749;51.962;8.560;2024-03-23T20:25:07;8.50;;;3.30;;
31095;SDS011;17749;51.962;8.560;2024-03-23T20:27:35;4.72;;;2.60;;
31095;SDS011;17749;51.962;8.560;2024-03-23T20:30:01;5.88;;;2.67;;
31095;SDS011;17749;51.962;8.560;2024-03-23T20:32:28;7.88;;;2.83;;
31095;SDS011;17749;51.962;8.560;2024-03-23T20:34:54;6.05;;;2.70;;
31095;SDS011;17749;51.962;8.560;2024-03-23T20:37:21;5.28;;;2.58;;
31095;SDS011;17749;51.962;8.560;2024-03-23T20:39:48;7.93;;;2.80;;
31095;SDS011;17749;51.962;8.560;2024-03-23T20:42:14;4.63;;;2.70;;
31095;SDS011;17749;51.962;8.560;2024-03-23T20:44:40;5.63;;;2.70;;
31095;SDS011;17749;51.962;8.560;2024-03-23T20:47:06;8.73;;;3.08;;
31095;SDS011;17749;51.962;8.560;2024-03-23T20:49:33;8.82;;;3.00;;
31095;SDS011;17749;51.962;8.560;2024-03-23T20:52:01;8.90;;;3.92;;
31095;SDS011;17749;51.962;8.560;2024-03-23T20:54:27;4.10;;;2.60;;
31095;SDS011;17749;51.962;8.560;2024-03-23T20:56:53;9.70;;;3.42;;
31095;SDS011;17749;51.962;8.560;2024-03-23T20:59:19;3.10;;;2.08;;
31095;SDS011;17749;51.962;8.560;2024-03-23T21:01:45;10.60;;;2.65;;
31095;SDS011;17749;51.962;8.560;2024-03-23T21:04:11;9.02;;;2.63;;
31095;SDS011;17749;51.962;8.560;2024-03-23T21:06:37;5.15;;;2.60;;
31095;SDS011;17749;51.962;8.560;2024-03-23T21:09:03;6.47;;;2.97;;
31095;SDS011;17749;51.962;8.560;2024-03-23T21:11:33;4.55;;;2.50;;